createdAt,value
2023-03-06T00:00:56.711Z,15.90
2023-03-06T00:03:27.804Z,20.83
2023-03-06T00:05:57.169Z,19.53
2023-03-06T00:08:25.165Z,20.03
2023-03-06T00:10:52.160Z,22.50
2023-03-06T00:13:21.287Z,16.40
2023-03-06T00:15:48.846Z,16.37
2023-03-06T00:18:16.070Z,16.27
2023-03-06T00:20:44.349Z,19.37
2023-03-06T00:23:13.720Z,18.57
2023-03-06T00:25:45.369Z,21.83
2023-03-06T00:28:15.772Z,25.70
2023-03-06T00:30:42.806Z,20.90
2023-03-06T00:33:10.485Z,19.73
2023-03-06T00:35:39.323Z,17.20
2023-03-06T00:38:06.354Z,26.07
2023-03-06T00:40:33.267Z,20.00
2023-03-06T00:43:00.541Z,20.63
2023-03-06T00:45:27.274Z,21.30
2023-03-06T00:47:54.312Z,24.87
2023-03-06T00:50:21.133Z,22.03
2023-03-06T00:52:48.209Z,22.87
2023-03-06T00:55:15.129Z,27.60
2023-03-06T00:57:42.155Z,24.33
2023-03-06T01:00:10.082Z,25.27
2023-03-06T01:02:37.221Z,21.93
2023-03-06T01:05:04.521Z,23.67
2023-03-06T01:07:34.058Z,20.57
2023-03-06T01:10:00.903Z,23.73
2023-03-06T01:12:27.891Z,27.67
2023-03-06T01:14:54.571Z,27.00
2023-03-06T01:17:21.677Z,27.10
2023-03-06T01:19:48.403Z,27.33
2023-03-06T01:22:15.442Z,26.23
2023-03-06T01:24:42.170Z,31.70
2023-03-06T01:27:09.305Z,30.50
2023-03-06T01:29:36.093Z,28.87
2023-03-06T01:32:03.386Z,31.93
2023-03-06T01:34:30.296Z,28.80
2023-03-06T01:36:57.296Z,30.27
2023-03-06T01:39:24.254Z,30.30
2023-03-06T01:41:51.294Z,27.03
2023-03-06T01:44:17.986Z,27.60
2023-03-06T01:46:46.176Z,27.60
2023-03-06T01:49:21.264Z,26.17
2023-03-06T01:51:58.410Z,31.83
2023-03-06T01:54:35.650Z,29.63
2023-03-06T01:57:11.760Z,28.33
2023-03-06T01:59:41.274Z,24.87
2023-03-06T02:02:10.589Z,28.70
2023-03-06T02:04:41.198Z,33.43
2023-03-06T02:07:09.210Z,27.70
2023-03-06T02:09:38.470Z,30.60
2023-03-06T02:12:08.967Z,28.13
2023-03-06T02:14:36.132Z,25.63
2023-03-06T02:17:03.644Z,34.93
2023-03-06T02:20:10.454Z,26.93
2023-03-06T02:22:49.949Z,28.50
2023-03-06T02:25:40.911Z,24.67
2023-03-06T02:28:11.764Z,28.33
2023-03-06T02:30:41.326Z,23.47
2023-03-06T02:33:15.855Z,31.90
2023-03-06T02:35:49.578Z,26.10
2023-03-06T02:38:18.803Z,28.87
2023-03-06T02:40:49.178Z,23.13
2023-03-06T02:43:23.140Z,28.57
2023-03-06T02:45:51.196Z,23.30
2023-03-06T02:48:19.592Z,27.60
2023-03-06T02:50:48.097Z,29.13
2023-03-06T02:53:17.338Z,22.63
2023-03-06T02:55:44.344Z,25.00
2023-03-06T02:58:11.531Z,25.53
2023-03-06T03:00:40.191Z,24.60
2023-03-06T03:03:09.337Z,26.40
2023-03-06T03:05:36.221Z,25.70
2023-03-06T03:08:11.596Z,27.00
2023-03-06T03:10:38.892Z,24.33
2023-03-06T03:13:06.894Z,19.07
2023-03-06T03:15:34.840Z,25.07
2023-03-06T03:18:01.905Z,23.23
2023-03-06T03:20:28.815Z,26.20
2023-03-06T03:22:56.712Z,25.43
2023-03-06T03:25:26.086Z,21.30
2023-03-06T03:27:56.023Z,23.87
2023-03-06T03:30:23.203Z,24.00
2023-03-06T03:32:50.927Z,27.37
2023-03-06T03:35:17.979Z,22.47
2023-03-06T03:37:46.902Z,26.57
2023-03-06T03:40:14.369Z,22.03
2023-03-06T03:42:41.425Z,29.43
2023-03-06T03:45:10.095Z,24.30
2023-03-06T03:47:37.548Z,30.67
2023-03-06T03:50:04.949Z,23.20
2023-03-06T03:52:32.200Z,26.50
2023-03-06T03:54:59.146Z,28.13
2023-03-06T03:57:27.593Z,23.80
2023-03-06T03:59:55.779Z,22.60
2023-03-06T04:02:27.247Z,23.53
2023-03-06T04:05:14.591Z,24.97
2023-03-06T04:07:43.100Z,28.03
2023-03-06T04:10:11.890Z,24.40
2023-03-06T04:12:39.057Z,23.40
2023-03-06T04:15:07.836Z,17.53
2023-03-06T04:17:35.690Z,25.97
2023-03-06T04:20:06.038Z,20.90
2023-03-06T04:22:33.801Z,26.23
2023-03-06T04:25:00.820Z,27.70
2023-03-06T04:27:27.896Z,21.63
2023-03-06T04:29:56.368Z,43.20
2023-03-06T04:32:24.180Z,37.67
2023-03-06T04:34:51.424Z,67.27
2023-03-06T04:37:21.566Z,74.50
2023-03-06T04:39:50.107Z,96.57
2023-03-06T04:42:17.703Z,75.57
2023-03-06T04:44:44.864Z,80.30
2023-03-06T04:47:12.400Z,73.97
2023-03-06T04:49:39.239Z,83.57
2023-03-06T04:52:06.507Z,104.13
2023-03-06T04:54:33.307Z,101.97
2023-03-06T04:57:00.289Z,90.47
2023-03-06T04:59:27.217Z,98.50
2023-03-06T05:01:54.628Z,152.43
2023-03-06T05:04:21.504Z,134.87
2023-03-06T05:06:49.385Z,137.73
2023-03-06T05:09:16.757Z,141.27
2023-03-06T05:11:43.779Z,156.17
2023-03-06T05:14:10.508Z,165.83
2023-03-06T05:16:37.614Z,150.17
2023-03-06T05:19:04.451Z,167.23
2023-03-06T05:21:31.484Z,156.13
2023-03-06T05:23:58.296Z,135.23
2023-03-06T05:26:25.305Z,145.37
2023-03-06T05:28:52.108Z,166.37
2023-03-06T05:31:19.233Z,166.10
2023-03-06T05:33:46.057Z,213.33
2023-03-06T05:36:13.149Z,171.23
2023-03-06T05:38:39.888Z,183.30
2023-03-06T05:41:07.049Z,188.50
2023-03-06T05:43:33.861Z,163.77
2023-03-06T05:46:05.684Z,153.83
2023-03-06T05:48:34.224Z,108.40
2023-03-06T05:51:02.146Z,107.23
2023-03-06T05:53:29.652Z,117.73
2023-03-06T05:56:02.377Z,84.90
2023-03-06T05:58:30.857Z,101.40
2023-03-06T06:00:58.598Z,102.40
2023-03-06T06:03:25.777Z,88.93
2023-03-06T06:05:53.008Z,84.07
2023-03-06T06:08:20.650Z,78.63
2023-03-06T06:10:47.756Z,69.90
2023-03-06T06:13:15.115Z,79.37
2023-03-06T06:15:42.774Z,88.00
2023-03-06T06:18:09.660Z,76.10
2023-03-06T06:20:37.142Z,77.47
2023-03-06T06:23:04.184Z,59.87
2023-03-06T06:25:32.269Z,85.60
2023-03-06T06:27:59.432Z,64.30
2023-03-06T06:30:26.578Z,77.27
2023-03-06T06:32:53.250Z,74.07
2023-03-06T06:35:20.515Z,84.63
2023-03-06T06:47:27.783Z,274.93
2023-03-06T06:49:56.068Z,278.37
2023-03-06T06:52:24.764Z,229.83
2023-03-06T06:54:52.780Z,104.07
2023-03-06T06:57:20.534Z,99.33
2023-03-06T06:59:47.845Z,70.27
2023-03-06T07:02:32.123Z,52.93
2023-03-06T07:05:04.794Z,60.17
2023-03-06T07:07:38.650Z,62.67
2023-03-06T07:10:08.351Z,63.27
2023-03-06T07:12:37.024Z,45.80
2023-03-06T07:15:05.302Z,54.93
2023-03-06T07:17:32.731Z,62.57
2023-03-06T07:19:59.954Z,86.90
2023-03-06T07:22:27.496Z,77.03
2023-03-06T07:24:54.293Z,86.27
2023-03-06T07:27:22.996Z,83.63
2023-03-06T07:29:49.866Z,72.93
2023-03-06T07:32:16.909Z,60.00
2023-03-06T07:34:45.278Z,60.27
2023-03-06T07:37:12.664Z,82.80
2023-03-06T07:39:39.471Z,81.87
2023-03-06T07:42:07.749Z,79.03
2023-03-06T07:44:37.851Z,73.50
2023-03-06T07:47:05.607Z,69.77
2023-03-06T07:49:32.984Z,67.73
2023-03-06T07:52:01.581Z,60.20
2023-03-06T07:54:30.699Z,66.93
2023-03-06T07:56:57.793Z,55.47
2023-03-06T07:59:24.549Z,60.10
2023-03-06T08:01:54.077Z,56.03
2023-03-06T08:04:20.908Z,53.73
2023-03-06T08:06:48.013Z,51.87
2023-03-06T08:09:14.794Z,63.37
2023-03-06T08:11:41.747Z,54.53
2023-03-06T08:14:08.740Z,47.80
2023-03-06T08:16:35.818Z,48.30
2023-03-06T08:19:02.653Z,49.50
2023-03-06T08:21:29.710Z,49.87
2023-03-06T08:23:56.814Z,48.00
2023-03-06T08:26:26.672Z,44.83
2023-03-06T08:28:55.372Z,43.07
2023-03-06T08:31:35.296Z,39.87
2023-03-06T08:34:05.251Z,45.50
2023-03-06T08:36:32.884Z,44.67
2023-03-06T08:39:00.223Z,43.33
2023-03-06T08:41:28.333Z,50.60
2023-03-06T08:43:55.262Z,50.40
2023-03-06T08:46:24.862Z,46.97
2023-03-06T08:48:51.807Z,51.43
2023-03-06T08:51:19.453Z,50.80
2023-03-06T08:53:46.742Z,58.83
2023-03-06T08:56:37.995Z,51.87
2023-03-06T08:59:06.618Z,49.43
2023-03-06T09:01:36.729Z,52.87
2023-03-06T09:04:07.565Z,52.07
2023-03-06T09:06:38.190Z,51.40
2023-03-06T09:09:05.938Z,50.70
2023-03-06T09:11:33.069Z,46.13
2023-03-06T09:13:59.941Z,49.77
2023-03-06T09:16:27.543Z,54.97
2023-03-06T09:18:54.469Z,59.00
2023-03-06T09:21:22.576Z,61.07
2023-03-06T09:23:50.000Z,52.20
2023-03-06T09:26:17.696Z,58.23
2023-03-06T09:28:44.446Z,55.93
2023-03-06T09:31:14.855Z,48.53
2023-03-06T09:33:42.001Z,54.40
2023-03-06T09:36:14.278Z,56.53
2023-03-06T09:38:41.098Z,51.10
2023-03-06T09:41:21.080Z,50.00
2023-03-06T09:43:50.497Z,54.90
2023-03-06T09:46:23.639Z,47.83
2023-03-06T09:49:14.214Z,49.03
2023-03-06T09:51:44.592Z,43.80
2023-03-06T09:54:15.426Z,37.43
2023-03-06T09:56:49.570Z,41.03
2023-03-06T09:59:26.112Z,39.77
2023-03-06T10:02:03.121Z,43.93
2023-03-06T10:04:44.218Z,43.50
2023-03-06T10:07:23.880Z,41.07
2023-03-06T10:10:01.534Z,35.33
2023-03-06T10:13:01.011Z,32.90
2023-03-06T10:15:33.435Z,28.63
2023-03-06T10:18:02.990Z,26.87
2023-03-06T10:20:51.408Z,29.47
2023-03-06T10:23:40.061Z,26.93
2023-03-06T10:26:18.660Z,23.23
2023-03-06T10:28:55.370Z,21.50
2023-03-06T10:31:26.338Z,25.20
2023-03-06T10:34:11.894Z,25.57
2023-03-06T10:36:38.744Z,22.13
2023-03-06T10:39:17.315Z,23.87
2023-03-06T10:41:45.358Z,14.77
2023-03-06T10:44:12.497Z,22.93
2023-03-06T10:46:42.472Z,26.20
2023-03-06T10:49:30.500Z,30.07
2023-03-06T10:52:01.967Z,27.57
2023-03-06T10:54:33.184Z,29.17
2023-03-06T10:57:25.299Z,30.53
2023-03-06T11:00:01.143Z,26.70
2023-03-06T11:02:33.961Z,25.20
2023-03-06T11:05:01.510Z,20.20
2023-03-06T11:07:31.081Z,24.87
2023-03-06T11:09:57.985Z,23.87
2023-03-06T11:12:34.270Z,23.97
2023-03-06T11:15:07.662Z,22.73
2023-03-06T11:17:37.599Z,24.90
2023-03-06T11:20:23.361Z,26.17
2023-03-06T11:23:17.756Z,23.17
2023-03-06T11:25:51.866Z,22.70
2023-03-06T11:28:24.063Z,24.00
2023-03-06T11:31:03.808Z,28.10
2023-03-06T11:33:46.765Z,20.20
2023-03-06T11:36:18.601Z,19.43
2023-03-06T11:38:55.010Z,23.20
2023-03-06T11:41:39.933Z,20.33
2023-03-06T11:44:14.358Z,25.33
2023-03-06T11:46:46.941Z,17.10
2023-03-06T11:49:25.866Z,17.37
2023-03-06T11:52:03.399Z,16.13
2023-03-06T11:54:31.303Z,17.00
2023-03-06T11:57:02.314Z,16.83
2023-03-06T11:59:58.363Z,16.40
2023-03-06T12:02:46.952Z,16.53
2023-03-06T12:05:26.070Z,15.17
2023-03-06T12:08:23.129Z,17.10
2023-03-06T12:11:01.163Z,16.10
2023-03-06T12:14:05.665Z,16.00
2023-03-06T12:16:55.809Z,12.40
2023-03-06T12:19:52.455Z,17.67
2023-03-06T12:22:53.360Z,20.53
2023-03-06T12:25:57.026Z,18.77
2023-03-06T12:28:54.385Z,26.53
2023-03-06T12:31:35.951Z,32.73
2023-03-06T12:34:28.462Z,31.83
2023-03-06T12:37:21.148Z,29.63
2023-03-06T12:40:09.985Z,24.43
2023-03-06T12:43:06.462Z,22.83
2023-03-06T12:45:35.058Z,26.77
2023-03-06T12:48:03.436Z,27.50
2023-03-06T12:50:33.434Z,27.57
2023-03-06T12:53:07.744Z,21.30
2023-03-06T12:55:41.709Z,26.67
2023-03-06T12:58:30.599Z,56.83
2023-03-06T13:01:29.361Z,44.67
2023-03-06T13:04:25.403Z,36.97
2023-03-06T13:07:03.093Z,32.63
2023-03-06T13:09:51.646Z,36.57
2023-03-06T13:12:46.195Z,27.67
2023-03-06T13:15:37.210Z,31.93
2023-03-06T13:18:22.603Z,29.97
2023-03-06T13:20:50.629Z,31.53
2023-03-06T13:23:29.659Z,29.90
2023-03-06T13:25:59.755Z,29.20
2023-03-06T13:28:45.034Z,32.23
2023-03-06T13:31:33.217Z,34.70
2023-03-06T13:34:05.535Z,36.90
2023-03-06T13:36:33.206Z,34.87
2023-03-06T13:39:08.506Z,33.70
2023-03-06T13:41:57.394Z,34.47
2023-03-06T13:44:24.496Z,35.07
2023-03-06T13:47:00.698Z,31.87
2023-03-06T13:49:29.104Z,31.97
2023-03-06T13:52:31.495Z,32.23
2023-03-06T13:55:08.324Z,37.93
2023-03-06T13:57:52.529Z,27.80
2023-03-06T14:00:46.302Z,16.07
2023-03-06T14:03:49.432Z,22.83
2023-03-06T14:06:34.109Z,14.40
2023-03-06T14:09:06.104Z,19.70
2023-03-06T14:11:34.241Z,16.93
2023-03-06T14:14:01.855Z,17.17
2023-03-06T14:16:40.559Z,19.20
2023-03-06T14:19:19.118Z,18.13
2023-03-06T14:21:55.720Z,16.70
2023-03-06T14:24:34.261Z,15.07
2023-03-06T14:27:01.102Z,12.63
2023-03-06T14:29:29.868Z,15.03
2023-03-06T14:32:09.540Z,15.93
2023-03-06T14:34:45.847Z,10.67
2023-03-06T14:37:22.644Z,9.27
2023-03-06T14:39:50.100Z,17.07
2023-03-06T14:42:20.976Z,11.47
2023-03-06T14:44:49.698Z,12.10
2023-03-06T14:47:34.194Z,10.30
2023-03-06T14:50:23.910Z,11.93
2023-03-06T14:52:55.181Z,12.50
2023-03-06T14:55:25.394Z,9.67
2023-03-06T14:58:01.830Z,9.27
2023-03-06T15:00:35.839Z,10.57
2023-03-06T15:03:07.658Z,11.37
2023-03-06T15:05:35.347Z,14.87
2023-03-06T15:08:06.848Z,17.73
2023-03-06T15:10:38.728Z,13.90
2023-03-06T15:13:20.982Z,15.27
2023-03-06T15:16:05.911Z,20.10
2023-03-06T15:18:54.414Z,21.97
2023-03-06T15:21:23.902Z,23.07
2023-03-06T15:23:52.586Z,19.87
2023-03-06T15:26:29.265Z,24.13
2023-03-06T15:29:08.259Z,17.20
2023-03-06T15:31:38.900Z,17.07
2023-03-06T15:34:11.588Z,21.20
2023-03-06T15:36:40.932Z,17.80
2023-03-06T15:39:26.920Z,24.57
2023-03-06T15:42:16.135Z,28.20
2023-03-06T15:44:42.888Z,27.27
2023-03-06T15:47:11.857Z,31.07
2023-03-06T15:49:39.932Z,29.77
2023-03-06T15:52:07.564Z,31.93
2023-03-06T15:54:34.418Z,27.67
2023-03-06T15:57:05.248Z,24.37
2023-03-06T15:59:40.356Z,25.53
2023-03-06T16:02:14.553Z,25.53
2023-03-06T16:04:41.558Z,26.93
2023-03-06T16:07:08.949Z,30.70
2023-03-06T16:09:36.244Z,29.97
2023-03-06T16:12:04.046Z,27.67
2023-03-06T16:14:30.921Z,38.13
2023-03-06T16:16:59.501Z,31.77
2023-03-06T16:19:27.638Z,38.93
2023-03-06T16:21:56.363Z,53.10
2023-03-06T16:24:26.117Z,47.73
2023-03-06T16:26:54.901Z,40.77
2023-03-06T16:29:25.900Z,52.17
2023-03-06T16:31:55.223Z,46.50
2023-03-06T16:34:22.656Z,34.10
2023-03-06T16:36:50.287Z,25.50
2023-03-06T16:39:22.648Z,21.00
2023-03-06T16:41:50.439Z,15.53
2023-03-06T16:44:17.688Z,17.03
2023-03-06T16:46:47.241Z,13.17
2023-03-06T16:49:23.580Z,14.27
2023-03-06T16:51:52.131Z,16.30
2023-03-06T16:54:19.666Z,20.80
2023-03-06T16:56:46.693Z,13.27
2023-03-06T16:59:13.558Z,18.30
2023-03-06T17:01:43.155Z,16.80
2023-03-06T17:04:10.565Z,22.80
2023-03-06T17:06:38.554Z,38.00
2023-03-06T17:09:05.614Z,38.87
2023-03-06T17:11:32.623Z,27.33
2023-03-06T17:13:59.575Z,27.47
2023-03-06T17:16:26.630Z,23.00
2023-03-06T17:18:54.970Z,23.63
2023-03-06T17:21:21.990Z,20.07
2023-03-06T17:23:50.814Z,20.77
2023-03-06T17:26:19.058Z,22.77
2023-03-06T17:28:46.715Z,22.73
2023-03-06T17:31:16.767Z,23.57
2023-03-06T17:33:44.075Z,24.57
2023-03-06T17:36:12.134Z,23.20
2023-03-06T17:38:38.855Z,22.90
2023-03-06T17:41:09.580Z,23.43
2023-03-06T17:43:37.713Z,22.17
2023-03-06T17:46:09.961Z,24.67
2023-03-06T17:48:37.691Z,28.50
2023-03-06T17:51:05.986Z,28.77
2023-03-06T17:53:33.208Z,26.17
2023-03-06T17:56:02.460Z,29.17
2023-03-06T17:58:29.189Z,21.57
2023-03-06T18:00:56.391Z,24.47
2023-03-06T18:03:23.338Z,23.77
2023-03-06T18:06:04.499Z,24.83
2023-03-06T18:08:32.222Z,25.70
2023-03-06T18:11:04.331Z,28.60
2023-03-06T18:13:32.987Z,22.73
2023-03-06T18:16:00.823Z,14.77
2023-03-06T18:18:28.361Z,20.97
2023-03-06T18:20:55.803Z,22.97
2023-03-06T18:23:23.477Z,19.10
2023-03-06T18:25:50.492Z,22.00
2023-03-06T18:28:17.333Z,23.57
2023-03-06T18:30:44.542Z,18.37
2023-03-06T18:33:11.458Z,21.47
2023-03-06T18:35:38.449Z,25.90
2023-03-06T18:38:05.293Z,23.23
2023-03-06T18:40:32.458Z,21.87
2023-03-06T18:42:59.260Z,19.67
2023-03-06T18:45:26.333Z,18.70
2023-03-06T18:47:53.070Z,21.97
2023-03-06T18:50:20.219Z,22.93
2023-03-06T18:52:47.024Z,23.67
2023-03-06T18:55:14.188Z,23.93
2023-03-06T18:57:41.363Z,21.37
2023-03-06T19:00:09.090Z,25.87
2023-03-06T19:02:35.931Z,20.80
2023-03-06T19:05:03.004Z,23.63
2023-03-06T19:07:29.797Z,24.90
2023-03-06T19:09:56.877Z,26.83
2023-03-06T19:12:23.733Z,24.83
2023-03-06T19:14:50.800Z,26.53
2023-03-06T19:17:17.519Z,24.23
2023-03-06T19:19:44.662Z,27.10
2023-03-06T19:22:11.425Z,22.27
2023-03-06T19:24:38.496Z,23.10
2023-03-06T19:27:05.233Z,26.63
2023-03-06T19:29:32.545Z,26.90
2023-03-06T19:31:59.519Z,24.33
2023-03-06T19:34:26.783Z,23.70
2023-03-06T19:36:53.597Z,21.10
2023-03-06T19:39:20.679Z,25.43
2023-03-06T19:41:47.872Z,20.60
2023-03-06T19:44:16.329Z,23.73
2023-03-06T19:46:43.586Z,22.93
2023-03-06T19:49:16.980Z,27.37
2023-03-06T19:51:44.413Z,21.40
2023-03-06T19:54:12.757Z,26.03
2023-03-06T19:56:40.117Z,26.00
2023-03-06T19:59:07.352Z,27.80
2023-03-06T20:01:34.474Z,29.77
2023-03-06T20:04:02.066Z,25.37
2023-03-06T20:06:33.620Z,30.17
2023-03-06T20:09:02.239Z,28.43
2023-03-06T20:11:30.004Z,27.53
2023-03-06T20:13:59.384Z,25.27
2023-03-06T20:16:30.068Z,28.17
2023-03-06T20:19:00.265Z,29.27
2023-03-06T20:21:29.121Z,30.20
2023-03-06T20:23:58.186Z,28.73
2023-03-06T20:26:26.465Z,32.70
2023-03-06T20:28:54.764Z,27.67
2023-03-06T20:31:25.315Z,23.43
2023-03-06T20:33:55.100Z,27.30
2023-03-06T20:36:28.907Z,26.03
2023-03-06T20:38:59.157Z,25.10
2023-03-06T20:41:28.026Z,27.70
2023-03-06T20:43:55.095Z,27.10
2023-03-06T20:46:23.223Z,30.87
2023-03-06T20:48:52.440Z,32.40
2023-03-06T20:51:21.951Z,33.17
2023-03-06T20:53:50.693Z,34.70
2023-03-06T20:56:20.379Z,34.90
2023-03-06T20:58:47.518Z,30.90
2023-03-06T21:01:25.795Z,33.27
2023-03-06T21:03:53.752Z,33.20
2023-03-06T21:06:21.164Z,28.87
2023-03-06T21:08:48.655Z,34.40
2023-03-06T21:11:16.133Z,43.30
2023-03-06T21:13:43.500Z,36.73
2023-03-06T21:16:12.889Z,37.57
2023-03-06T21:18:40.118Z,39.00
2023-03-06T21:21:12.240Z,39.93
2023-03-06T21:23:39.836Z,43.57
2023-03-06T21:26:11.821Z,44.10
2023-03-06T21:28:39.781Z,38.40
2023-03-06T21:31:09.012Z,46.63
2023-03-06T21:33:36.334Z,43.10
2023-03-06T21:36:03.603Z,37.47
2023-03-06T21:38:31.246Z,41.00
2023-03-06T21:41:10.437Z,39.00
2023-03-06T21:43:38.016Z,37.77
2023-03-06T21:46:05.235Z,42.87
2023-03-06T21:48:32.340Z,37.00
2023-03-06T21:51:10.126Z,40.17
2023-03-06T21:53:37.613Z,44.30
2023-03-06T21:56:05.166Z,41.43
2023-03-06T21:58:32.391Z,40.60
2023-03-06T22:00:59.606Z,41.00
2023-03-06T22:03:28.627Z,42.23
2023-03-06T22:05:56.534Z,42.83
2023-03-06T22:08:25.065Z,40.67
2023-03-06T22:10:51.795Z,44.13
2023-03-06T22:13:19.306Z,47.57
2023-03-06T22:15:52.683Z,40.83
2023-03-06T22:18:20.241Z,41.53
2023-03-06T22:20:47.312Z,44.13
2023-03-06T22:23:14.504Z,44.30
2023-03-06T22:25:41.261Z,45.77
2023-03-06T22:28:08.297Z,45.90
2023-03-06T22:30:35.088Z,43.57
2023-03-06T22:33:02.099Z,42.43
2023-03-06T22:35:28.943Z,49.87
2023-03-06T22:37:56.239Z,43.80
2023-03-06T22:40:22.938Z,48.60
2023-03-06T22:42:49.939Z,47.67
2023-03-06T22:45:17.079Z,46.37
2023-03-06T22:47:44.152Z,45.80
2023-03-06T22:50:11.514Z,51.23
2023-03-06T22:52:38.742Z,41.53
2023-03-06T22:55:06.054Z,45.13
2023-03-06T22:57:33.087Z,51.70
2023-03-06T22:59:59.896Z,46.27
2023-03-06T23:02:33.081Z,45.27
2023-03-06T23:04:59.882Z,49.77
2023-03-06T23:07:26.858Z,44.40
2023-03-06T23:10:00.535Z,44.87
2023-03-06T23:12:46.194Z,50.10
2023-03-06T23:15:32.417Z,43.00
2023-03-06T23:18:17.814Z,48.97
2023-03-06T23:21:14.466Z,42.10
2023-03-06T23:24:00.319Z,48.17
2023-03-06T23:26:29.730Z,50.27
2023-03-06T23:28:57.595Z,49.40
2023-03-06T23:31:29.373Z,44.70
2023-03-06T23:33:58.487Z,54.33
2023-03-06T23:36:25.669Z,50.80
2023-03-06T23:38:52.868Z,47.47
2023-03-06T23:41:21.114Z,44.47
2023-03-06T23:43:49.387Z,52.90
2023-03-06T23:46:16.568Z,53.10
2023-03-06T23:48:44.309Z,46.53
2023-03-06T23:51:19.315Z,46.43
2023-03-06T23:53:48.318Z,52.53
2023-03-06T23:56:15.374Z,51.17
2023-03-06T23:58:42.486Z,48.90
